sensor_id;sensor_type;location;lat;lon;timestamp;pressure;altitude;pressure_sealevel;temperature;humidity
33153;BME280;19509;43.862;26.176;2023-09-30T00:00:59;101087.94;;;12.52;61.62
33153;BME280;19509;43.862;26.176;2023-09-30T00:03:24;101078.34;;;12.63;61.35
33153;BME280;19509;43.862;26.176;2023-09-30T00:05:50;101073.59;;;12.59;60.95
33153;BME280;19509;43.862;26.176;2023-09-30T00:08:16;101080.66;;;12.53;61.24
33153;BME280;19509;43.862;26.176;2023-09-30T00:10:41;101073.44;;;12.47;61.27
33153;BME280;19509;43.862;26.176;2023-09-30T00:13:07;101080.25;;;12.43;61.33
33153;BME280;19509;43.862;26.176;2023-09-30T00:15:33;101076.34;;;12.32;61.95
33153;BME280;19509;43.862;26.176;2023-09-30T00:17:58;101084.84;;;12.22;61.40
33153;BME280;19509;43.862;26.176;2023-09-30T00:20:24;101083.22;;;12.21;61.61
33153;BME280;19509;43.862;26.176;2023-09-30T00:22:50;101089.44;;;12.22;61.48
33153;BME280;19509;43.862;26.176;2023-09-30T00:25:15;101084.88;;;12.16;61.46
33153;BME280;19509;43.862;26.176;2023-09-30T00:27:41;101083.63;;;12.12;62.03
33153;BME280;19509;43.862;26.176;2023-09-30T00:30:07;101083.22;;;12.21;62.06
33153;BME280;19509;43.862;26.176;2023-09-30T00:32:33;101074.47;;;12.19;61.77
33153;BME280;19509;43.862;26.176;2023-09-30T00:35:01;101079.47;;;12.09;61.62
33153;BME280;19509;43.862;26.176;2023-09-30T00:37:26;101081.16;;;11.97;61.84
33153;BME280;19509;43.862;26.176;2023-09-30T00:39:53;101084.66;;;11.84;62.28
33153;BME280;19509;43.862;26.176;2023-09-30T00:42:19;101077.16;;;11.73;62.64
33153;BME280;19509;43.862;26.176;2023-09-30T00:44:46;101080.88;;;11.58;62.97
33153;BME280;19509;43.862;26.176;2023-09-30T00:47:13;101073.81;;;11.57;62.82
33153;BME280;19509;43.862;26.176;2023-09-30T00:49:40;101066.53;;;11.51;62.66
33153;BME280;19509;43.862;26.176;2023-09-30T00:52:07;101075.25;;;11.47;63.01
33153;BME280;19509;43.862;26.176;2023-09-30T00:54:33;101075.03;;;11.42;63.20
33153;BME280;19509;43.862;26.176;2023-09-30T00:57:00;101071.31;;;11.49;63.77
33153;BME280;19509;43.862;26.176;2023-09-30T00:59:28;101065.53;;;11.52;64.03
33153;BME280;19509;43.862;26.176;2023-09-30T01:01:56;101070.25;;;11.44;63.58
33153;BME280;19509;43.862;26.176;2023-09-30T01:04:23;101066.31;;;11.33;64.62
33153;BME280;19509;43.862;26.176;2023-09-30T01:06:49;101070.03;;;11.32;64.11
33153;BME280;19509;43.862;26.176;2023-09-30T01:09:14;101066.94;;;11.28;64.25
33153;BME280;19509;43.862;26.176;2023-09-30T01:11:40;101076.69;;;11.36;64.45
33153;BME280;19509;43.862;26.176;2023-09-30T01:16:50;101078.69;;;11.14;65.54
33153;BME280;19509;43.862;26.176;2023-09-30T01:19:16;101073.66;;;10.98;65.80
33153;BME280;19509;43.862;26.176;2023-09-30T01:21:42;101068.09;;;11.12;65.94
33153;BME280;19509;43.862;26.176;2023-09-30T01:24:10;101073.53;;;11.26;65.87
33153;BME280;19509;43.862;26.176;2023-09-30T01:26:35;101071.50;;;11.28;65.00
33153;BME280;19509;43.862;26.176;2023-09-30T01:29:01;101074.38;;;11.26;65.20
33153;BME280;19509;43.862;26.176;2023-09-30T01:31:27;101069.97;;;11.12;65.83
33153;BME280;19509;43.862;26.176;2023-09-30T01:33:52;101067.47;;;11.10;66.20
33153;BME280;19509;43.862;26.176;2023-09-30T01:36:19;101062.94;;;11.11;66.35
33153;BME280;19509;43.862;26.176;2023-09-30T01:38:45;101069.34;;;11.17;65.65
33153;BME280;19509;43.862;26.176;2023-09-30T01:41:11;101071.75;;;10.92;66.31
33153;BME280;19509;43.862;26.176;2023-09-30T01:43:36;101064.84;;;10.76;66.71
33153;BME280;19509;43.862;26.176;2023-09-30T01:46:03;101069.66;;;10.80;66.88
33153;BME280;19509;43.862;26.176;2023-09-30T01:48:30;101069.84;;;10.79;66.54
33153;BME280;19509;43.862;26.176;2023-09-30T01:50:56;101075.41;;;10.71;66.83
33153;BME280;19509;43.862;26.176;2023-09-30T01:53:21;101067.94;;;10.73;66.95
33153;BME280;19509;43.862;26.176;2023-09-30T01:55:47;101059.28;;;10.77;67.61
33153;BME280;19509;43.862;26.176;2023-09-30T01:58:13;101059.13;;;10.92;66.67
33153;BME280;19509;43.862;26.176;2023-09-30T02:00:39;101063.00;;;10.83;66.80
33153;BME280;19509;43.862;26.176;2023-09-30T02:03:04;101062.97;;;10.76;66.83
33153;BME280;19509;43.862;26.176;2023-09-30T02:05:30;101063.16;;;10.68;67.30
33153;BME280;19509;43.862;26.176;2023-09-30T02:07:56;101057.78;;;10.68;67.43
33153;BME280;19509;43.862;26.176;2023-09-30T02:10:21;101062.50;;;10.66;67.11
33153;BME280;19509;43.862;26.176;2023-09-30T02:12:47;101064.94;;;10.54;68.06
33153;BME280;19509;43.862;26.176;2023-09-30T02:15:13;101065.47;;;10.71;68.40
33153;BME280;19509;43.862;26.176;2023-09-30T02:17:39;101063.44;;;10.86;68.48
33153;BME280;19509;43.862;26.176;2023-09-30T02:20:07;101062.88;;;10.98;68.49
33153;BME280;19509;43.862;26.176;2023-09-30T02:22:38;101062.50;;;11.01;68.28
33153;BME280;19509;43.862;26.176;2023-09-30T02:25:04;101060.25;;;11.11;68.08
33153;BME280;19509;43.862;26.176;2023-09-30T02:27:32;101061.03;;;11.05;67.76
33153;BME280;19509;43.862;26.176;2023-09-30T02:29:58;101057.75;;;11.09;68.15
33153;BME280;19509;43.862;26.176;2023-09-30T02:32:23;101058.78;;;11.08;68.00
33153;BME280;19509;43.862;26.176;2023-09-30T02:34:49;101055.22;;;11.01;68.36
33153;BME280;19509;43.862;26.176;2023-09-30T02:37:16;101046.31;;;11.01;68.42
33153;BME280;19509;43.862;26.176;2023-09-30T02:39:43;101056.47;;;10.99;68.37
33153;BME280;19509;43.862;26.176;2023-09-30T02:42:10;101050.22;;;10.92;68.54
33153;BME280;19509;43.862;26.176;2023-09-30T02:44:35;101057.09;;;11.01;68.17
33153;BME280;19509;43.862;26.176;2023-09-30T02:47:01;101053.97;;;10.97;68.87
33153;BME280;19509;43.862;26.176;2023-09-30T02:49:26;101057.88;;;10.88;69.03
33153;BME280;19509;43.862;26.176;2023-09-30T02:51:52;101051.44;;;10.89;69.35
33153;BME280;19509;43.862;26.176;2023-09-30T02:54:18;101051.72;;;11.01;68.69
33153;BME280;19509;43.862;26.176;2023-09-30T02:56:43;101055.66;;;11.05;68.82
33153;BME280;19509;43.862;26.176;2023-09-30T02:59:11;101052.66;;;10.86;69.17
33153;BME280;19509;43.862;26.176;2023-09-30T03:01:36;101051.13;;;10.64;69.55
33153;BME280;19509;43.862;26.176;2023-09-30T03:04:03;101059.78;;;10.59;70.13
33153;BME280;19509;43.862;26.176;2023-09-30T03:06:33;101057.75;;;10.61;70.14
33153;BME280;19509;43.862;26.176;2023-09-30T03:09:01;101051.03;;;10.92;69.19
33153;BME280;19509;43.862;26.176;2023-09-30T03:11:30;101066.00;;;11.01;68.92
33153;BME280;19509;43.862;26.176;2023-09-30T03:13:55;101064.38;;;11.13;68.25
33153;BME280;19509;43.862;26.176;2023-09-30T03:16:21;101060.88;;;11.20;68.14
33153;BME280;19509;43.862;26.176;2023-09-30T03:18:46;101051.72;;;11.01;68.92
33153;BME280;19509;43.862;26.176;2023-09-30T03:21:15;101055.44;;;11.06;69.00
33153;BME280;19509;43.862;26.176;2023-09-30T03:23:41;101057.34;;;11.12;68.47
33153;BME280;19509;43.862;26.176;2023-09-30T03:26:07;101057.34;;;11.19;68.26
33153;BME280;19509;43.862;26.176;2023-09-30T03:28:38;101049.91;;;11.21;68.40
33153;BME280;19509;43.862;26.176;2023-09-30T03:31:05;101064.78;;;11.17;68.20
33153;BME280;19509;43.862;26.176;2023-09-30T03:33:34;101058.16;;;11.13;68.30
33153;BME280;19509;43.862;26.176;2023-09-30T03:36:00;101057.97;;;11.15;68.24
33153;BME280;19509;43.862;26.176;2023-09-30T03:38:26;101062.25;;;10.96;68.88
33153;BME280;19509;43.862;26.176;2023-09-30T03:40:52;101065.19;;;11.01;68.93
33153;BME280;19509;43.862;26.176;2023-09-30T03:43:20;101055.22;;;11.01;68.53
33153;BME280;19509;43.862;26.176;2023-09-30T03:45:46;101067.91;;;11.07;68.27
33153;BME280;19509;43.862;26.176;2023-09-30T03:48:12;101053.56;;;11.07;68.41
33153;BME280;19509;43.862;26.176;2023-09-30T03:50:37;101056.06;;;11.02;68.51
33153;BME280;19509;43.862;26.176;2023-09-30T03:53:04;101063.28;;;10.95;68.81
33153;BME280;19509;43.862;26.176;2023-09-30T03:55:30;101066.53;;;10.77;68.37
33153;BME280;19509;43.862;26.176;2023-09-30T03:57:57;101058.00;;;10.73;69.13
33153;BME280;19509;43.862;26.176;2023-09-30T04:00:23;101065.34;;;10.93;68.94
33153;BME280;19509;43.862;26.176;2023-09-30T04:02:50;101066.75;;;10.82;69.33
33153;BME280;19509;43.862;26.176;2023-09-30T04:05:19;101069.00;;;10.78;68.86
33153;BME280;19509;43.862;26.176;2023-09-30T04:07:49;101072.19;;;10.54;68.99
33153;BME280;19509;43.862;26.176;2023-09-30T04:10:15;101069.44;;;10.40;69.39
33153;BME280;19509;43.862;26.176;2023-09-30T04:12:40;101076.50;;;10.48;69.68
33153;BME280;19509;43.862;26.176;2023-09-30T04:15:06;101073.19;;;10.46;69.19
33153;BME280;19509;43.862;26.176;2023-09-30T04:17:32;101072.72;;;10.42;69.36
33153;BME280;19509;43.862;26.176;2023-09-30T04:19:58;101070.41;;;10.33;69.49
33153;BME280;19509;43.862;26.176;2023-09-30T04:22:24;63304.72;;;-144.22;100.00
33153;BME280;19509;43.862;26.176;2023-09-30T04:24:51;63304.72;;;-144.22;100.00
33153;BME280;19509;43.862;26.176;2023-09-30T04:27:17;63304.72;;;-144.22;100.00
33153;BME280;19509;43.862;26.176;2023-09-30T04:29:43;63304.72;;;-144.22;100.00
33153;BME280;19509;43.862;26.176;2023-09-30T04:32:09;63304.72;;;-144.22;100.00
33153;BME280;19509;43.862;26.176;2023-09-30T04:34:35;63304.72;;;-144.22;100.00
33153;BME280;19509;43.862;26.176;2023-09-30T04:37:00;63304.72;;;-144.22;100.00
33153;BME280;19509;43.862;26.176;2023-09-30T04:39:26;63304.72;;;-144.22;100.00
33153;BME280;19509;43.862;26.176;2023-09-30T04:41:51;63304.72;;;-144.22;100.00
33153;BME280;19509;43.862;26.176;2023-09-30T04:44:17;63304.72;;;-144.22;100.00
33153;BME280;19509;43.862;26.176;2023-09-30T04:46:42;63304.72;;;-144.22;100.00
33153;BME280;19509;43.862;26.176;2023-09-30T04:49:14;63304.72;;;-144.22;100.00
33153;BME280;19509;43.862;26.176;2023-09-30T04:51:40;63304.72;;;-144.22;100.00
33153;BME280;19509;43.862;26.176;2023-09-30T04:54:05;101097.91;;;10.63;69.29
33153;BME280;19509;43.862;26.176;2023-09-30T04:56:34;101096.31;;;10.75;69.58
33153;BME280;19509;43.862;26.176;2023-09-30T04:59:00;101101.56;;;10.90;68.91
33153;BME280;19509;43.862;26.176;2023-09-30T05:01:26;101098.91;;;10.97;69.11
33153;BME280;19509;43.862;26.176;2023-09-30T05:03:51;101100.00;;;11.09;68.48
33153;BME280;19509;43.862;26.176;2023-09-30T05:06:17;101099.78;;;11.10;68.80
33153;BME280;19509;43.862;26.176;2023-09-30T05:08:43;101100.69;;;11.24;68.96
33153;BME280;19509;43.862;26.176;2023-09-30T05:11:08;101106.75;;;11.46;67.78
33153;BME280;19509;43.862;26.176;2023-09-30T05:13:34;101107.84;;;11.65;67.45
33153;BME280;19509;43.862;26.176;2023-09-30T05:16:00;101105.59;;;11.82;67.11
33153;BME280;19509;43.862;26.176;2023-09-30T05:18:26;101111.44;;;12.05;66.10
33153;BME280;19509;43.862;26.176;2023-09-30T05:20:52;101105.03;;;12.20;65.74
33153;BME280;19509;43.862;26.176;2023-09-30T05:23:17;101103.13;;;12.40;65.02
33153;BME280;19509;43.862;26.176;2023-09-30T05:25:44;101111.41;;;12.59;64.55
33153;BME280;19509;43.862;26.176;2023-09-30T05:28:10;101101.47;;;13.04;63.20
33153;BME280;19509;43.862;26.176;2023-09-30T05:30:37;101104.81;;;13.06;63.15
33153;BME280;19509;43.862;26.176;2023-09-30T05:33:02;101105.81;;;13.25;63.04
33153;BME280;19509;43.862;26.176;2023-09-30T05:35:28;101111.16;;;13.38;62.36
33153;BME280;19509;43.862;26.176;2023-09-30T05:37:55;101101.63;;;13.22;62.71
33153;BME280;19509;43.862;26.176;2023-09-30T05:40:21;101114.75;;;13.25;63.02
33153;BME280;19509;43.862;26.176;2023-09-30T05:42:59;101118.19;;;13.46;62.70
33153;BME280;19509;43.862;26.176;2023-09-30T05:45:25;101121.44;;;13.55;62.30
33153;BME280;19509;43.862;26.176;2023-09-30T05:47:54;101111.59;;;13.67;62.26
33153;BME280;19509;43.862;26.176;2023-09-30T05:50:21;101120.31;;;13.76;61.71
33153;BME280;19509;43.862;26.176;2023-09-30T05:52:54;101128.69;;;13.92;61.71
33153;BME280;19509;43.862;26.176;2023-09-30T05:55:20;101123.13;;;14.12;61.27
33153;BME280;19509;43.862;26.176;2023-09-30T05:57:48;101130.50;;;14.30;60.93
33153;BME280;19509;43.862;26.176;2023-09-30T06:00:15;101120.47;;;14.56;60.10
33153;BME280;19509;43.862;26.176;2023-09-30T06:02:49;101129.78;;;14.85;59.55
33153;BME280;19509;43.862;26.176;2023-09-30T06:05:17;101131.41;;;15.04;58.93
33153;BME280;19509;43.862;26.176;2023-09-30T06:07:45;101131.34;;;15.29;58.32
33153;BME280;19509;43.862;26.176;2023-09-30T06:10:11;101125.88;;;15.48;57.72
33153;BME280;19509;43.862;26.176;2023-09-30T06:12:38;101129.16;;;15.68;57.00
33153;BME280;19509;43.862;26.176;2023-09-30T06:15:04;101130.84;;;15.81;57.06
33153;BME280;19509;43.862;26.176;2023-09-30T06:17:31;101141.88;;;16.09;56.90
33153;BME280;19509;43.862;26.176;2023-09-30T06:31:01;101139.28;;;17.49;52.60
33153;BME280;19509;43.862;26.176;2023-09-30T06:33:28;101138.94;;;17.45;52.84
33153;BME280;19509;43.862;26.176;2023-09-30T06:35:54;101140.22;;;17.55;52.86
33153;BME280;19509;43.862;26.176;2023-09-30T06:38:20;101137.19;;;17.68;52.39
33153;BME280;19509;43.862;26.176;2023-09-30T06:40:46;101142.91;;;17.95;51.90
33153;BME280;19509;43.862;26.176;2023-09-30T06:43:13;101138.06;;;18.31;51.21
33153;BME280;19509;43.862;26.176;2023-09-30T06:45:44;101136.78;;;18.55;50.32
33153;BME280;19509;43.862;26.176;2023-09-30T06:48:10;101144.16;;;18.94;50.08
33153;BME280;19509;43.862;26.176;2023-09-30T06:50:48;101137.56;;;19.33;47.57
33153;BME280;19509;43.862;26.176;2023-09-30T06:53:17;101137.13;;;19.64;45.65
33153;BME280;19509;43.862;26.176;2023-09-30T06:55:44;101133.31;;;19.97;44.56
33153;BME280;19509;43.862;26.176;2023-09-30T06:58:10;101136.84;;;19.92;44.56
33153;BME280;19509;43.862;26.176;2023-09-30T07:00:36;101140.59;;;19.86;43.86
33153;BME280;19509;43.862;26.176;2023-09-30T07:03:02;101132.41;;;19.86;43.72
33153;BME280;19509;43.862;26.176;2023-09-30T07:05:29;101139.16;;;20.05;43.69
33153;BME280;19509;43.862;26.176;2023-09-30T07:07:54;101139.53;;;20.19;43.32
33153;BME280;19509;43.862;26.176;2023-09-30T07:10:20;101137.91;;;20.18;42.96
33153;BME280;19509;43.862;26.176;2023-09-30T07:12:46;101136.75;;;20.14;43.03
33153;BME280;19509;43.862;26.176;2023-09-30T07:15:11;101135.59;;;20.05;43.23
33153;BME280;19509;43.862;26.176;2023-09-30T07:17:37;101137.91;;;20.23;42.52
33153;BME280;19509;43.862;26.176;2023-09-30T07:20:04;101140.72;;;20.33;42.98
33153;BME280;19509;43.862;26.176;2023-09-30T07:22:30;101139.16;;;20.43;42.25
33153;BME280;19509;43.862;26.176;2023-09-30T07:24:56;101130.03;;;20.59;42.61
33153;BME280;19509;43.862;26.176;2023-09-30T07:27:23;101137.53;;;20.84;41.54
33153;BME280;19509;43.862;26.176;2023-09-30T07:29:49;101134.78;;;20.79;41.60
33153;BME280;19509;43.862;26.176;2023-09-30T07:32:14;101143.09;;;21.05;40.65
33153;BME280;19509;43.862;26.176;2023-09-30T07:34:40;101142.03;;;21.11;41.02
33153;BME280;19509;43.862;26.176;2023-09-30T07:37:06;101133.63;;;21.27;40.51
33153;BME280;19509;43.862;26.176;2023-09-30T07:39:31;101133.84;;;21.11;40.54
33153;BME280;19509;43.862;26.176;2023-09-30T07:41:57;101134.13;;;21.14;40.92
33153;BME280;19509;43.862;26.176;2023-09-30T07:44:22;101139.59;;;21.19;40.49
33153;BME280;19509;43.862;26.176;2023-09-30T07:46:48;101139.06;;;21.17;40.66
33153;BME280;19509;43.862;26.176;2023-09-30T07:49:13;101132.56;;;21.34;41.20
33153;BME280;19509;43.862;26.176;2023-09-30T07:51:39;101139.78;;;21.60;40.19
33153;BME280;19509;43.862;26.176;2023-09-30T07:54:05;101146.06;;;21.56;40.80
33153;BME280;19509;43.862;26.176;2023-09-30T07:56:31;101135.38;;;21.54;40.33
33153;BME280;19509;43.862;26.176;2023-09-30T07:58:57;101135.16;;;21.76;39.83
33153;BME280;19509;43.862;26.176;2023-09-30T08:01:22;101136.81;;;22.08;39.24
33153;BME280;19509;43.862;26.176;2023-09-30T08:03:48;101131.88;;;22.00;39.24
33153;BME280;19509;43.862;26.176;2023-09-30T08:06:14;101140.69;;;22.17;39.44
33153;BME280;19509;43.862;26.176;2023-09-30T08:08:40;101131.63;;;22.52;39.00
33153;BME280;19509;43.862;26.176;2023-09-30T08:11:05;101135.16;;;22.58;37.77
33153;BME280;19509;43.862;26.176;2023-09-30T08:13:32;101124.72;;;22.70;38.48
33153;BME280;19509;43.862;26.176;2023-09-30T08:16:01;101140.03;;;22.81;37.87
33153;BME280;19509;43.862;26.176;2023-09-30T08:18:26;101142.56;;;22.57;37.94
33153;BME280;19509;43.862;26.176;2023-09-30T08:20:52;101135.94;;;22.68;38.05
33153;BME280;19509;43.862;26.176;2023-09-30T08:23:18;101143.38;;;22.68;37.78
33153;BME280;19509;43.862;26.176;2023-09-30T08:25:43;101138.94;;;22.87;37.24
33153;BME280;19509;43.862;26.176;2023-09-30T08:28:09;101146.34;;;22.97;37.21
33153;BME280;19509;43.862;26.176;2023-09-30T08:30:38;101135.88;;;22.99;37.44
33153;BME280;19509;43.862;26.176;2023-09-30T08:33:03;101131.81;;;22.97;37.23
33153;BME280;19509;43.862;26.176;2023-09-30T08:35:30;101133.69;;;23.06;37.21
33153;BME280;19509;43.862;26.176;2023-09-30T08:37:55;101132.50;;;23.28;36.67
33153;BME280;19509;43.862;26.176;2023-09-30T08:40:21;101127.03;;;23.67;36.00
33153;BME280;19509;43.862;26.176;2023-09-30T08:42:51;101117.16;;;23.66;35.43
33153;BME280;19509;43.862;26.176;2023-09-30T08:45:18;101134.97;;;23.74;35.92
33153;BME280;19509;43.862;26.176;2023-09-30T08:47:43;101129.66;;;23.88;35.62
33153;BME280;19509;43.862;26.176;2023-09-30T08:50:09;101130.50;;;23.88;35.87
33153;BME280;19509;43.862;26.176;2023-09-30T08:52:38;101124.09;;;23.98;35.39
33153;BME280;19509;43.862;26.176;2023-09-30T08:55:04;101128.22;;;24.29;35.33
33153;BME280;19509;43.862;26.176;2023-09-30T08:57:30;101121.91;;;24.29;34.97
33153;BME280;19509;43.862;26.176;2023-09-30T08:59:57;101123.19;;;24.42;34.50
33153;BME280;19509;43.862;26.176;2023-09-30T09:02:23;101117.78;;;24.61;34.82
33153;BME280;19509;43.862;26.176;2023-09-30T09:04:49;101116.75;;;24.51;33.40
33153;BME280;19509;43.862;26.176;2023-09-30T09:07:15;101119.03;;;24.44;33.74
33153;BME280;19509;43.862;26.176;2023-09-30T09:09:40;101116.94;;;24.31;34.38
33153;BME280;19509;43.862;26.176;2023-09-30T09:12:06;101111.41;;;24.36;34.02
33153;BME280;19509;43.862;26.176;2023-09-30T09:14:38;101098.09;;;24.72;33.90
33153;BME280;19509;43.862;26.176;2023-09-30T09:17:05;101109.09;;;24.96;33.13
33153;BME280;19509;43.862;26.176;2023-09-30T09:19:31;101101.91;;;24.76;33.87
33153;BME280;19509;43.862;26.176;2023-09-30T09:21:58;101104.47;;;24.68;33.44
33153;BME280;19509;43.862;26.176;2023-09-30T09:27:07;101097.81;;;24.74;32.66
33153;BME280;19509;43.862;26.176;2023-09-30T09:29:34;101098.84;;;24.78;33.45
33153;BME280;19509;43.862;26.176;2023-09-30T09:32:14;101095.81;;;25.04;32.55
33153;BME280;19509;43.862;26.176;2023-09-30T09:34:41;101091.50;;;25.16;32.58
33153;BME280;19509;43.862;26.176;2023-09-30T09:37:18;101090.28;;;25.46;32.01
33153;BME280;19509;43.862;26.176;2023-09-30T09:39:53;101092.59;;;25.58;31.59
33153;BME280;19509;43.862;26.176;2023-09-30T09:42:32;101090.25;;;25.84;30.15
33153;BME280;19509;43.862;26.176;2023-09-30T09:45:03;101077.91;;;25.82;30.43
33153;BME280;19509;43.862;26.176;2023-09-30T09:47:32;101081.53;;;25.96;30.33
33153;BME280;19509;43.862;26.176;2023-09-30T09:49:58;101079.22;;;25.84;30.77
33153;BME280;19509;43.862;26.176;2023-09-30T09:52:25;101068.81;;;25.81;30.71
33153;BME280;19509;43.862;26.176;2023-09-30T09:54:51;101065.38;;;25.70;30.21
33153;BME280;19509;43.862;26.176;2023-09-30T09:57:18;101071.78;;;25.85;29.06
33153;BME280;19509;43.862;26.176;2023-09-30T09:59:44;101062.13;;;26.01;28.83
33153;BME280;19509;43.862;26.176;2023-09-30T10:02:13;101059.38;;;26.01;29.40
33153;BME280;19509;43.862;26.176;2023-09-30T10:04:43;101056.19;;;26.40;28.21
33153;BME280;19509;43.862;26.176;2023-09-30T10:07:21;101058.84;;;26.59;28.23
33153;BME280;19509;43.862;26.176;2023-09-30T10:09:50;101048.88;;;26.50;28.24
33153;BME280;19509;43.862;26.176;2023-09-30T10:12:18;101048.44;;;26.84;26.82
33153;BME280;19509;43.862;26.176;2023-09-30T10:14:43;101042.06;;;26.97;26.96
33153;BME280;19509;43.862;26.176;2023-09-30T10:17:09;101038.88;;;26.90;26.57
33153;BME280;19509;43.862;26.176;2023-09-30T10:19:35;101042.69;;;26.94;27.01
33153;BME280;19509;43.862;26.176;2023-09-30T10:24:49;101019.78;;;27.30;26.51
33153;BME280;19509;43.862;26.176;2023-09-30T10:27:27;101022.25;;;27.31;26.76
33153;BME280;19509;43.862;26.176;2023-09-30T10:29:58;101028.50;;;27.23;26.46
33153;BME280;19509;43.862;26.176;2023-09-30T10:35:41;101028.69;;;26.91;27.22
33153;BME280;19509;43.862;26.176;2023-09-30T10:40:48;101023.53;;;27.11;26.30
33153;BME280;19509;43.862;26.176;2023-09-30T10:43:35;101017.72;;;27.58;26.09
33153;BME280;19509;43.862;26.176;2023-09-30T10:46:02;101017.03;;;27.75;25.33
33153;BME280;19509;43.862;26.176;2023-09-30T10:50:57;101012.56;;;27.79;25.86
33153;BME280;19509;43.862;26.176;2023-09-30T10:53:25;101004.94;;;27.85;24.32
33153;BME280;19509;43.862;26.176;2023-09-30T10:56:00;101012.63;;;28.27;24.19
33153;BME280;19509;43.862;26.176;2023-09-30T11:01:11;100999.44;;;28.24;24.59
33153;BME280;19509;43.862;26.176;2023-09-30T11:03:41;100991.00;;;28.29;23.79
33153;BME280;19509;43.862;26.176;2023-09-30T11:06:11;100996.41;;;28.03;24.02
33153;BME280;19509;43.862;26.176;2023-09-30T11:08:41;101007.66;;;28.07;24.13
33153;BME280;19509;43.862;26.176;2023-09-30T11:11:10;101004.81;;;27.90;23.95
33153;BME280;19509;43.862;26.176;2023-09-30T11:13:36;101015.06;;;27.89;23.78
33153;BME280;19509;43.862;26.176;2023-09-30T11:16:03;100998.81;;;27.74;23.90
33153;BME280;19509;43.862;26.176;2023-09-30T11:18:32;101000.53;;;27.83;24.43
33153;BME280;19509;43.862;26.176;2023-09-30T11:21:09;100987.97;;;27.77;24.00
33153;BME280;19509;43.862;26.176;2023-09-30T11:23:36;100980.22;;;27.66;24.06
33153;BME280;19509;43.862;26.176;2023-09-30T11:26:03;100977.25;;;27.85;23.88
33153;BME280;19509;43.862;26.176;2023-09-30T11:28:44;100974.41;;;27.98;24.13
33153;BME280;19509;43.862;26.176;2023-09-30T11:31:12;100976.47;;;28.24;24.06
33153;BME280;19509;43.862;26.176;2023-09-30T11:33:52;100966.84;;;28.21;23.26
33153;BME280;19509;43.862;26.176;2023-09-30T11:36:21;100964.16;;;27.99;24.24
33153;BME280;19509;43.862;26.176;2023-09-30T11:38:47;100965.53;;;28.10;23.33
33153;BME280;19509;43.862;26.176;2023-09-30T11:41:14;100957.53;;;28.40;23.39
33153;BME280;19509;43.862;26.176;2023-09-30T11:43:59;100955.03;;;28.29;23.12
33153;BME280;19509;43.862;26.176;2023-09-30T11:46:26;100959.44;;;28.39;23.29
33153;BME280;19509;43.862;26.176;2023-09-30T11:49:00;100975.31;;;28.16;23.22
33153;BME280;19509;43.862;26.176;2023-09-30T11:51:27;100965.94;;;27.95;23.43
33153;BME280;19509;43.862;26.176;2023-09-30T11:53:53;100953.66;;;28.10;23.40
33153;BME280;19509;43.862;26.176;2023-09-30T11:56:20;100937.09;;;28.36;23.45
33153;BME280;19509;43.862;26.176;2023-09-30T11:58:47;100947.28;;;28.58;22.87
33153;BME280;19509;43.862;26.176;2023-09-30T12:01:14;100944.03;;;28.47;22.79
33153;BME280;19509;43.862;26.176;2023-09-30T12:03:41;100943.97;;;28.38;23.00
33153;BME280;19509;43.862;26.176;2023-09-30T12:06:07;100945.75;;;28.34;23.10
33153;BME280;19509;43.862;26.176;2023-09-30T12:08:33;100934.81;;;28.29;22.70
33153;BME280;19509;43.862;26.176;2023-09-30T12:10:59;100936.25;;;28.18;23.59
33153;BME280;19509;43.862;26.176;2023-09-30T12:13:27;100929.69;;;28.45;23.22
33153;BME280;19509;43.862;26.176;2023-09-30T12:15:53;100926.78;;;28.50;22.54
33153;BME280;19509;43.862;26.176;2023-09-30T12:18:19;100929.88;;;28.83;23.15
33153;BME280;19509;43.862;26.176;2023-09-30T12:20:49;100923.03;;;28.89;22.36
33153;BME280;19509;43.862;26.176;2023-09-30T12:23:15;100911.81;;;28.94;22.72
33153;BME280;19509;43.862;26.176;2023-09-30T12:25:40;100924.31;;;28.66;22.71
33153;BME280;19509;43.862;26.176;2023-09-30T12:28:06;100918.16;;;28.60;22.88
33153;BME280;19509;43.862;26.176;2023-09-30T12:30:31;100916.06;;;28.17;22.75
33153;BME280;19509;43.862;26.176;2023-09-30T12:32:57;100906.91;;;28.08;22.82
33153;BME280;19509;43.862;26.176;2023-09-30T12:35:23;100909.16;;;28.46;23.51
33153;BME280;19509;43.862;26.176;2023-09-30T12:37:50;100898.25;;;28.67;22.62
33153;BME280;19509;43.862;26.176;2023-09-30T12:40:16;100895.13;;;28.34;22.84
33153;BME280;19509;43.862;26.176;2023-09-30T12:42:43;100898.78;;;28.60;22.86
33153;BME280;19509;43.862;26.176;2023-09-30T12:45:10;100893.72;;;28.53;22.96
33153;BME280;19509;43.862;26.176;2023-09-30T12:47:35;100888.34;;;28.57;22.36
33153;BME280;19509;43.862;26.176;2023-09-30T12:50:01;100888.59;;;28.38;22.56
33153;BME280;19509;43.862;26.176;2023-09-30T12:52:27;100891.91;;;28.40;22.67
33153;BME280;19509;43.862;26.176;2023-09-30T12:54:52;100883.25;;;28.42;22.59
33153;BME280;19509;43.862;26.176;2023-09-30T12:57:18;100877.41;;;28.43;22.47
33153;BME280;19509;43.862;26.176;2023-09-30T12:59:44;100872.69;;;28.44;22.98
33153;BME280;19509;43.862;26.176;2023-09-30T13:02:15;100875.75;;;28.42;22.39
33153;BME280;19509;43.862;26.176;2023-09-30T13:04:41;100853.25;;;28.26;23.17
33153;BME280;19509;43.862;26.176;2023-09-30T13:07:12;100865.63;;;28.20;23.36